sensor_id;sensor_type;location;lat;lon;timestamp;P1;durP1;ratioP1;P2;durP2;ratioP2
7529;SDS011;3806;52.270;10.544;2023-09-07T00:01:07;4.65;;;3.22;;
7529;SDS011;3806;52.270;10.544;2023-09-07T00:03:33;8.32;;;3.25;;
7529;SDS011;3806;52.270;10.544;2023-09-07T00:05:58;5.13;;;3.70;;
7529;SDS011;3806;52.270;10.544;2023-09-07T00:08:24;7.68;;;3.72;;
7529;SDS011;3806;52.270;10.544;2023-09-07T00:10:50;6.32;;;3.20;;
7529;SDS011;3806;52.270;10.544;2023-09-07T00:13:16;5.10;;;3.28;;
7529;SDS011;3806;52.270;10.544;2023-09-07T00:15:42;3.65;;;3.20;;
7529;SDS011;3806;52.270;10.544;2023-09-07T00:18:07;5.32;;;3.30;;
7529;SDS011;3806;52.270;10.544;2023-09-07T00:20:33;4.55;;;3.13;;
7529;SDS011;3806;52.270;10.544;2023-09-07T00:22:59;5.20;;;3.45;;
7529;SDS011;3806;52.270;10.544;2023-09-07T00:25:25;6.30;;;3.47;;
7529;SDS011;3806;52.270;10.544;2023-09-07T00:27:51;5.63;;;3.17;;
7529;SDS011;3806;52.270;10.544;2023-09-07T00:30:17;5.35;;;3.65;;
7529;SDS011;3806;52.270;10.544;2023-09-07T00:32:42;3.92;;;2.90;;
7529;SDS011;3806;52.270;10.544;2023-09-07T00:35:08;5.07;;;3.10;;
7529;SDS011;3806;52.270;10.544;2023-09-07T00:37:34;5.63;;;3.25;;
7529;SDS011;3806;52.270;10.544;2023-09-07T00:39:59;7.32;;;3.92;;
7529;SDS011;3806;52.270;10.544;2023-09-07T00:42:25;6.32;;;3.35;;
7529;SDS011;3806;52.270;10.544;2023-09-07T00:44:50;5.53;;;3.42;;
7529;SDS011;3806;52.270;10.544;2023-09-07T00:47:16;7.82;;;3.90;;
7529;SDS011;3806;52.270;10.544;2023-09-07T00:49:42;5.97;;;3.45;;
7529;SDS011;3806;52.270;10.544;2023-09-07T00:52:08;5.70;;;3.47;;
7529;SDS011;3806;52.270;10.544;2023-09-07T00:54:37;5.57;;;3.70;;
7529;SDS011;3806;52.270;10.544;2023-09-07T00:57:05;5.25;;;3.55;;
7529;SDS011;3806;52.270;10.544;2023-09-07T00:59:34;4.50;;;3.38;;
7529;SDS011;3806;52.270;10.544;2023-09-07T01:02:00;5.72;;;3.65;;
7529;SDS011;3806;52.270;10.544;2023-09-07T01:04:25;5.07;;;3.75;;
7529;SDS011;3806;52.270;10.544;2023-09-07T01:06:52;5.68;;;3.15;;
7529;SDS011;3806;52.270;10.544;2023-09-07T01:09:27;6.63;;;3.60;;
7529;SDS011;3806;52.270;10.544;2023-09-07T01:11:55;7.00;;;3.80;;
7529;SDS011;3806;52.270;10.544;2023-09-07T01:14:20;5.10;;;3.67;;
7529;SDS011;3806;52.270;10.544;2023-09-07T01:16:47;6.30;;;3.83;;
7529;SDS011;3806;52.270;10.544;2023-09-07T01:19:14;7.90;;;3.70;;
7529;SDS011;3806;52.270;10.544;2023-09-07T01:21:39;4.70;;;3.47;;
7529;SDS011;3806;52.270;10.544;2023-09-07T01:24:09;4.78;;;3.80;;
7529;SDS011;3806;52.270;10.544;2023-09-07T01:26:36;6.93;;;4.32;;
7529;SDS011;3806;52.270;10.544;2023-09-07T01:29:05;6.07;;;3.53;;
7529;SDS011;3806;52.270;10.544;2023-09-07T01:31:35;6.68;;;3.70;;
7529;SDS011;3806;52.270;10.544;2023-09-07T01:34:01;7.18;;;4.13;;
7529;SDS011;3806;52.270;10.544;2023-09-07T01:36:27;5.40;;;3.45;;
7529;SDS011;3806;52.270;10.544;2023-09-07T01:38:52;7.28;;;4.00;;
7529;SDS011;3806;52.270;10.544;2023-09-07T01:41:18;4.90;;;3.50;;
7529;SDS011;3806;52.270;10.544;2023-09-07T01:43:43;4.47;;;3.50;;
7529;SDS011;3806;52.270;10.544;2023-09-07T01:46:09;6.00;;;3.65;;
7529;SDS011;3806;52.270;10.544;2023-09-07T01:48:34;8.15;;;3.90;;
7529;SDS011;3806;52.270;10.544;2023-09-07T01:51:01;5.57;;;3.70;;
7529;SDS011;3806;52.270;10.544;2023-09-07T01:53:26;5.68;;;3.72;;
7529;SDS011;3806;52.270;10.544;2023-09-07T01:55:55;6.60;;;3.42;;
7529;SDS011;3806;52.270;10.544;2023-09-07T01:58:20;5.43;;;3.17;;
7529;SDS011;3806;52.270;10.544;2023-09-07T02:00:46;4.22;;;3.67;;
7529;SDS011;3806;52.270;10.544;2023-09-07T02:03:12;5.00;;;3.42;;
7529;SDS011;3806;52.270;10.544;2023-09-07T02:05:38;5.93;;;3.70;;
7529;SDS011;3806;52.270;10.544;2023-09-07T02:08:04;6.05;;;3.53;;
7529;SDS011;3806;52.270;10.544;2023-09-07T02:10:30;6.88;;;3.33;;
7529;SDS011;3806;52.270;10.544;2023-09-07T02:12:55;5.18;;;3.95;;
7529;SDS011;3806;52.270;10.544;2023-09-07T02:15:23;5.22;;;3.42;;
7529;SDS011;3806;52.270;10.544;2023-09-07T02:17:48;6.82;;;3.28;;
7529;SDS011;3806;52.270;10.544;2023-09-07T02:20:14;7.20;;;3.92;;
7529;SDS011;3806;52.270;10.544;2023-09-07T02:22:40;6.30;;;3.50;;
7529;SDS011;3806;52.270;10.544;2023-09-07T02:25:05;6.05;;;3.55;;
7529;SDS011;3806;52.270;10.544;2023-09-07T02:27:32;5.15;;;4.28;;
7529;SDS011;3806;52.270;10.544;2023-09-07T02:29:58;4.88;;;3.60;;
7529;SDS011;3806;52.270;10.544;2023-09-07T02:32:23;9.50;;;4.45;;
7529;SDS011;3806;52.270;10.544;2023-09-07T02:34:49;5.68;;;3.65;;
7529;SDS011;3806;52.270;10.544;2023-09-07T02:37:14;5.22;;;3.85;;
7529;SDS011;3806;52.270;10.544;2023-09-07T02:39:41;7.15;;;4.05;;
7529;SDS011;3806;52.270;10.544;2023-09-07T02:42:07;7.22;;;3.83;;
7529;SDS011;3806;52.270;10.544;2023-09-07T02:44:33;6.55;;;3.38;;
7529;SDS011;3806;52.270;10.544;2023-09-07T02:46:58;5.93;;;3.72;;
7529;SDS011;3806;52.270;10.544;2023-09-07T02:49:24;4.28;;;3.60;;
7529;SDS011;3806;52.270;10.544;2023-09-07T02:51:49;8.02;;;4.28;;
7529;SDS011;3806;52.270;10.544;2023-09-07T02:54:15;5.05;;;3.33;;
7529;SDS011;3806;52.270;10.544;2023-09-07T02:56:40;5.22;;;3.40;;
7529;SDS011;3806;52.270;10.544;2023-09-07T02:59:06;6.38;;;3.75;;
7529;SDS011;3806;52.270;10.544;2023-09-07T03:01:31;6.07;;;4.13;;
7529;SDS011;3806;52.270;10.544;2023-09-07T03:03:57;8.38;;;3.40;;
7529;SDS011;3806;52.270;10.544;2023-09-07T03:06:22;10.02;;;3.78;;
7529;SDS011;3806;52.270;10.544;2023-09-07T03:08:48;5.43;;;3.88;;
7529;SDS011;3806;52.270;10.544;2023-09-07T03:11:13;6.63;;;4.00;;
7529;SDS011;3806;52.270;10.544;2023-09-07T03:13:39;5.28;;;4.25;;
7529;SDS011;3806;52.270;10.544;2023-09-07T03:16:05;5.70;;;3.60;;
7529;SDS011;3806;52.270;10.544;2023-09-07T03:18:31;6.13;;;3.75;;
7529;SDS011;3806;52.270;10.544;2023-09-07T03:20:58;5.75;;;3.53;;
7529;SDS011;3806;52.270;10.544;2023-09-07T03:23:25;4.80;;;3.58;;
7529;SDS011;3806;52.270;10.544;2023-09-07T03:25:52;5.88;;;3.65;;
7529;SDS011;3806;52.270;10.544;2023-09-07T03:28:17;5.15;;;3.25;;
7529;SDS011;3806;52.270;10.544;2023-09-07T03:30:43;4.30;;;3.60;;
7529;SDS011;3806;52.270;10.544;2023-09-07T03:33:08;6.50;;;3.70;;
7529;SDS011;3806;52.270;10.544;2023-09-07T03:35:34;7.97;;;3.95;;
7529;SDS011;3806;52.270;10.544;2023-09-07T03:38:00;8.52;;;3.45;;
7529;SDS011;3806;52.270;10.544;2023-09-07T03:40:25;7.60;;;4.20;;
7529;SDS011;3806;52.270;10.544;2023-09-07T03:42:51;5.18;;;3.47;;
7529;SDS011;3806;52.270;10.544;2023-09-07T03:45:16;5.10;;;3.67;;
7529;SDS011;3806;52.270;10.544;2023-09-07T03:47:42;7.95;;;3.92;;
7529;SDS011;3806;52.270;10.544;2023-09-07T03:50:09;6.63;;;3.92;;
7529;SDS011;3806;52.270;10.544;2023-09-07T03:52:34;6.35;;;3.97;;
7529;SDS011;3806;52.270;10.544;2023-09-07T03:55:00;5.38;;;4.07;;
7529;SDS011;3806;52.270;10.544;2023-09-07T03:57:26;8.80;;;3.72;;
7529;SDS011;3806;52.270;10.544;2023-09-07T03:59:52;5.55;;;3.60;;
7529;SDS011;3806;52.270;10.544;2023-09-07T04:02:20;5.55;;;3.83;;
7529;SDS011;3806;52.270;10.544;2023-09-07T04:04:50;6.45;;;4.38;;
7529;SDS011;3806;52.270;10.544;2023-09-07T04:07:16;5.57;;;3.85;;
7529;SDS011;3806;52.270;10.544;2023-09-07T04:09:42;6.47;;;4.10;;
7529;SDS011;3806;52.270;10.544;2023-09-07T04:12:08;6.65;;;4.28;;
7529;SDS011;3806;52.270;10.544;2023-09-07T04:14:34;6.18;;;4.43;;
7529;SDS011;3806;52.270;10.544;2023-09-07T04:17:00;6.10;;;4.43;;
7529;SDS011;3806;52.270;10.544;2023-09-07T04:19:25;5.70;;;3.85;;
7529;SDS011;3806;52.270;10.544;2023-09-07T04:21:51;8.23;;;4.20;;
7529;SDS011;3806;52.270;10.544;2023-09-07T04:24:16;7.30;;;4.43;;
7529;SDS011;3806;52.270;10.544;2023-09-07T04:26:42;5.85;;;3.85;;
7529;SDS011;3806;52.270;10.544;2023-09-07T04:29:07;6.70;;;3.63;;
7529;SDS011;3806;52.270;10.544;2023-09-07T04:31:33;6.95;;;4.40;;
7529;SDS011;3806;52.270;10.544;2023-09-07T04:33:59;7.03;;;4.38;;
7529;SDS011;3806;52.270;10.544;2023-09-07T04:36:25;4.88;;;3.65;;
7529;SDS011;3806;52.270;10.544;2023-09-07T04:38:50;5.90;;;4.47;;
7529;SDS011;3806;52.270;10.544;2023-09-07T04:41:16;9.90;;;4.70;;
7529;SDS011;3806;52.270;10.544;2023-09-07T04:43:41;6.70;;;4.10;;
7529;SDS011;3806;52.270;10.544;2023-09-07T04:46:11;6.82;;;4.40;;
7529;SDS011;3806;52.270;10.544;2023-09-07T04:48:37;5.75;;;3.50;;
7529;SDS011;3806;52.270;10.544;2023-09-07T04:51:06;5.32;;;4.07;;
7529;SDS011;3806;52.270;10.544;2023-09-07T04:53:34;6.10;;;4.13;;
7529;SDS011;3806;52.270;10.544;2023-09-07T04:56:01;8.75;;;4.68;;
7529;SDS011;3806;52.270;10.544;2023-09-07T04:58:27;5.57;;;4.13;;
7529;SDS011;3806;52.270;10.544;2023-09-07T05:00:53;5.35;;;4.10;;
7529;SDS011;3806;52.270;10.544;2023-09-07T05:03:19;8.77;;;4.55;;
7529;SDS011;3806;52.270;10.544;2023-09-07T05:05:44;7.93;;;4.50;;
7529;SDS011;3806;52.270;10.544;2023-09-07T05:08:15;5.75;;;3.97;;
7529;SDS011;3806;52.270;10.544;2023-09-07T05:10:41;5.75;;;4.40;;
7529;SDS011;3806;52.270;10.544;2023-09-07T05:13:07;8.13;;;4.75;;
7529;SDS011;3806;52.270;10.544;2023-09-07T05:15:32;6.20;;;4.22;;
7529;SDS011;3806;52.270;10.544;2023-09-07T05:17:58;6.25;;;4.63;;
7529;SDS011;3806;52.270;10.544;2023-09-07T05:20:23;6.30;;;3.92;;
7529;SDS011;3806;52.270;10.544;2023-09-07T05:22:49;5.63;;;3.92;;
7529;SDS011;3806;52.270;10.544;2023-09-07T05:25:15;7.38;;;3.72;;
7529;SDS011;3806;52.270;10.544;2023-09-07T05:27:41;4.85;;;3.65;;
7529;SDS011;3806;52.270;10.544;2023-09-07T05:30:06;5.35;;;3.88;;
7529;SDS011;3806;52.270;10.544;2023-09-07T05:32:32;6.97;;;4.53;;
7529;SDS011;3806;52.270;10.544;2023-09-07T05:34:58;9.98;;;5.05;;
7529;SDS011;3806;52.270;10.544;2023-09-07T05:37:23;8.55;;;5.05;;
7529;SDS011;3806;52.270;10.544;2023-09-07T05:39:49;7.13;;;4.35;;
7529;SDS011;3806;52.270;10.544;2023-09-07T05:42:15;7.18;;;4.20;;
7529;SDS011;3806;52.270;10.544;2023-09-07T05:44:41;8.07;;;5.03;;
7529;SDS011;3806;52.270;10.544;2023-09-07T05:47:06;8.45;;;4.18;;
7529;SDS011;3806;52.270;10.544;2023-09-07T05:49:32;7.88;;;4.13;;
7529;SDS011;3806;52.270;10.544;2023-09-07T05:51:57;6.95;;;4.30;;
7529;SDS011;3806;52.270;10.544;2023-09-07T05:54:23;8.90;;;4.00;;
7529;SDS011;3806;52.270;10.544;2023-09-07T05:56:48;4.32;;;3.10;;
7529;SDS011;3806;52.270;10.544;2023-09-07T05:59:14;3.90;;;3.25;;
7529;SDS011;3806;52.270;10.544;2023-09-07T06:01:39;3.72;;;2.78;;
7529;SDS011;3806;52.270;10.544;2023-09-07T06:04:08;3.75;;;2.90;;
7529;SDS011;3806;52.270;10.544;2023-09-07T06:06:34;7.25;;;3.88;;
7529;SDS011;3806;52.270;10.544;2023-09-07T06:08:59;6.15;;;3.22;;
7529;SDS011;3806;52.270;10.544;2023-09-07T06:11:25;5.43;;;3.00;;
7529;SDS011;3806;52.270;10.544;2023-09-07T06:13:51;5.00;;;3.22;;
7529;SDS011;3806;52.270;10.544;2023-09-07T06:16:16;5.95;;;3.65;;
7529;SDS011;3806;52.270;10.544;2023-09-07T06:18:42;4.30;;;2.90;;
7529;SDS011;3806;52.270;10.544;2023-09-07T06:21:08;5.18;;;2.97;;
7529;SDS011;3806;52.270;10.544;2023-09-07T06:23:33;4.47;;;3.28;;
7529;SDS011;3806;52.270;10.544;2023-09-07T06:25:59;4.78;;;3.38;;
7529;SDS011;3806;52.270;10.544;2023-09-07T06:28:26;3.95;;;2.80;;
7529;SDS011;3806;52.270;10.544;2023-09-07T06:30:51;6.13;;;2.80;;
7529;SDS011;3806;52.270;10.544;2023-09-07T06:33:17;3.92;;;2.80;;
7529;SDS011;3806;52.270;10.544;2023-09-07T06:35:43;3.92;;;2.90;;
7529;SDS011;3806;52.270;10.544;2023-09-07T06:38:08;4.60;;;2.78;;
7529;SDS011;3806;52.270;10.544;2023-09-07T06:40:34;4.78;;;3.00;;
7529;SDS011;3806;52.270;10.544;2023-09-07T06:42:59;6.20;;;2.70;;
7529;SDS011;3806;52.270;10.544;2023-09-07T06:45:25;3.40;;;2.70;;
7529;SDS011;3806;52.270;10.544;2023-09-07T06:47:52;3.75;;;2.85;;
7529;SDS011;3806;52.270;10.544;2023-09-07T06:50:17;7.05;;;3.33;;
7529;SDS011;3806;52.270;10.544;2023-09-07T06:52:43;5.97;;;2.97;;
7529;SDS011;3806;52.270;10.544;2023-09-07T06:55:09;4.15;;;2.60;;
7529;SDS011;3806;52.270;10.544;2023-09-07T06:57:34;4.78;;;2.50;;
7529;SDS011;3806;52.270;10.544;2023-09-07T07:00:03;5.45;;;2.80;;
7529;SDS011;3806;52.270;10.544;2023-09-07T07:02:35;5.38;;;2.63;;
7529;SDS011;3806;52.270;10.544;2023-09-07T07:05:01;3.80;;;2.95;;
7529;SDS011;3806;52.270;10.544;2023-09-07T07:07:28;6.20;;;3.28;;
7529;SDS011;3806;52.270;10.544;2023-09-07T07:09:54;4.15;;;2.78;;
7529;SDS011;3806;52.270;10.544;2023-09-07T07:12:20;6.43;;;3.67;;
7529;SDS011;3806;52.270;10.544;2023-09-07T07:14:46;7.97;;;2.90;;
7529;SDS011;3806;52.270;10.544;2023-09-07T07:17:11;4.40;;;3.20;;
7529;SDS011;3806;52.270;10.544;2023-09-07T07:19:37;3.30;;;2.92;;
7529;SDS011;3806;52.270;10.544;2023-09-07T07:22:03;5.93;;;3.47;;
7529;SDS011;3806;52.270;10.544;2023-09-07T07:24:28;5.82;;;3.45;;
7529;SDS011;3806;52.270;10.544;2023-09-07T07:26:54;4.55;;;3.33;;
7529;SDS011;3806;52.270;10.544;2023-09-07T07:29:19;8.90;;;3.80;;
7529;SDS011;3806;52.270;10.544;2023-09-07T07:31:45;8.93;;;3.75;;
7529;SDS011;3806;52.270;10.544;2023-09-07T07:34:11;5.75;;;3.67;;
7529;SDS011;3806;52.270;10.544;2023-09-07T07:36:37;6.43;;;3.13;;
7529;SDS011;3806;52.270;10.544;2023-09-07T07:39:03;5.38;;;3.97;;
7529;SDS011;3806;52.270;10.544;2023-09-07T07:41:29;6.57;;;3.72;;
7529;SDS011;3806;52.270;10.544;2023-09-07T07:43:55;5.85;;;3.70;;
7529;SDS011;3806;52.270;10.544;2023-09-07T07:46:20;5.60;;;3.33;;
7529;SDS011;3806;52.270;10.544;2023-09-07T07:48:46;5.50;;;4.07;;
7529;SDS011;3806;52.270;10.544;2023-09-07T07:51:11;4.80;;;4.03;;
7529;SDS011;3806;52.270;10.544;2023-09-07T07:53:37;6.15;;;3.95;;
7529;SDS011;3806;52.270;10.544;2023-09-07T07:56:02;6.60;;;3.80;;
7529;SDS011;3806;52.270;10.544;2023-09-07T07:58:28;7.35;;;3.72;;
7529;SDS011;3806;52.270;10.544;2023-09-07T08:00:54;6.80;;;4.70;;
7529;SDS011;3806;52.270;10.544;2023-09-07T08:03:22;5.15;;;3.50;;
7529;SDS011;3806;52.270;10.544;2023-09-07T08:05:48;6.53;;;3.20;;
7529;SDS011;3806;52.270;10.544;2023-09-07T08:08:14;5.03;;;3.70;;
7529;SDS011;3806;52.270;10.544;2023-09-07T08:10:39;4.80;;;3.30;;
7529;SDS011;3806;52.270;10.544;2023-09-07T08:13:06;5.65;;;3.05;;
7529;SDS011;3806;52.270;10.544;2023-09-07T08:15:32;5.18;;;3.65;;
7529;SDS011;3806;52.270;10.544;2023-09-07T08:17:58;4.70;;;3.00;;
7529;SDS011;3806;52.270;10.544;2023-09-07T08:20:25;6.47;;;3.33;;
7529;SDS011;3806;52.270;10.544;2023-09-07T08:22:50;5.70;;;3.40;;
7529;SDS011;3806;52.270;10.544;2023-09-07T08:25:17;4.28;;;3.42;;
7529;SDS011;3806;52.270;10.544;2023-09-07T08:27:43;5.50;;;3.28;;
7529;SDS011;3806;52.270;10.544;2023-09-07T08:30:11;4.30;;;2.65;;
7529;SDS011;3806;52.270;10.544;2023-09-07T08:32:38;6.18;;;2.95;;
7529;SDS011;3806;52.270;10.544;2023-09-07T08:35:04;5.88;;;3.17;;
7529;SDS011;3806;52.270;10.544;2023-09-07T08:37:32;4.65;;;2.40;;
7529;SDS011;3806;52.270;10.544;2023-09-07T08:39:58;2.80;;;2.42;;
7529;SDS011;3806;52.270;10.544;2023-09-07T08:42:24;4.45;;;2.90;;
7529;SDS011;3806;52.270;10.544;2023-09-07T08:44:50;4.95;;;2.90;;
7529;SDS011;3806;52.270;10.544;2023-09-07T08:47:19;5.70;;;2.45;;
7529;SDS011;3806;52.270;10.544;2023-09-07T08:49:45;2.83;;;2.40;;
7529;SDS011;3806;52.270;10.544;2023-09-07T08:52:12;5.22;;;2.72;;
7529;SDS011;3806;52.270;10.544;2023-09-07T08:54:40;3.40;;;2.75;;
7529;SDS011;3806;52.270;10.544;2023-09-07T08:57:08;4.55;;;2.47;;
7529;SDS011;3806;52.270;10.544;2023-09-07T08:59:35;5.22;;;2.65;;
7529;SDS011;3806;52.270;10.544;2023-09-07T09:02:01;4.15;;;2.67;;
7529;SDS011;3806;52.270;10.544;2023-09-07T09:04:29;3.90;;;2.60;;
7529;SDS011;3806;52.270;10.544;2023-09-07T09:06:55;4.57;;;2.60;;
7529;SDS011;3806;52.270;10.544;2023-09-07T09:09:22;6.55;;;2.97;;
7529;SDS011;3806;52.270;10.544;2023-09-07T09:11:50;10.07;;;2.90;;
7529;SDS011;3806;52.270;10.544;2023-09-07T09:14:17;5.90;;;2.40;;
7529;SDS011;3806;52.270;10.544;2023-09-07T09:16:50;5.53;;;2.63;;
7529;SDS011;3806;52.270;10.544;2023-09-07T09:19:16;5.95;;;2.80;;
7529;SDS011;3806;52.270;10.544;2023-09-07T09:21:44;4.72;;;2.75;;
7529;SDS011;3806;52.270;10.544;2023-09-07T09:24:11;6.20;;;2.63;;
7529;SDS011;3806;52.270;10.544;2023-09-07T09:26:39;5.25;;;3.13;;
7529;SDS011;3806;52.270;10.544;2023-09-07T09:29:05;3.42;;;2.72;;
7529;SDS011;3806;52.270;10.544;2023-09-07T09:31:30;5.45;;;2.95;;
7529;SDS011;3806;52.270;10.544;2023-09-07T09:33:56;4.28;;;2.90;;
7529;SDS011;3806;52.270;10.544;2023-09-07T09:36:23;4.63;;;2.85;;
7529;SDS011;3806;52.270;10.544;2023-09-07T09:38:49;6.60;;;3.08;;
7529;SDS011;3806;52.270;10.544;2023-09-07T09:41:16;5.10;;;3.15;;
7529;SDS011;3806;52.270;10.544;2023-09-07T09:43:42;7.97;;;3.35;;
7529;SDS011;3806;52.270;10.544;2023-09-07T09:46:09;5.65;;;3.33;;
7529;SDS011;3806;52.270;10.544;2023-09-07T09:48:35;5.15;;;2.85;;
7529;SDS011;3806;52.270;10.544;2023-09-07T09:51:01;7.47;;;3.72;;
7529;SDS011;3806;52.270;10.544;2023-09-07T09:53:28;6.40;;;3.17;;
7529;SDS011;3806;52.270;10.544;2023-09-07T09:55:55;7.13;;;3.45;;
7529;SDS011;3806;52.270;10.544;2023-09-07T09:58:21;4.30;;;3.13;;
7529;SDS011;3806;52.270;10.544;2023-09-07T10:00:48;5.60;;;3.25;;
7529;SDS011;3806;52.270;10.544;2023-09-07T10:03:18;6.05;;;2.92;;
7529;SDS011;3806;52.270;10.544;2023-09-07T10:05:53;3.70;;;2.88;;
7529;SDS011;3806;52.270;10.544;2023-09-07T10:08:21;6.40;;;3.80;;
7529;SDS011;3806;52.270;10.544;2023-09-07T10:10:52;4.22;;;2.88;;
7529;SDS011;3806;52.270;10.544;2023-09-07T10:13:28;4.10;;;2.72;;
7529;SDS011;3806;52.270;10.544;2023-09-07T10:16:01;4.95;;;3.25;;
7529;SDS011;3806;52.270;10.544;2023-09-07T10:18:35;4.78;;;3.13;;
7529;SDS011;3806;52.270;10.544;2023-09-07T10:21:01;5.65;;;3.10;;
7529;SDS011;3806;52.270;10.544;2023-09-07T10:23:35;6.65;;;3.10;;
7529;SDS011;3806;52.270;10.544;2023-09-07T10:26:02;5.47;;;2.85;;
7529;SDS011;3806;52.270;10.544;2023-09-07T10:28:31;5.40;;;3.15;;
7529;SDS011;3806;52.270;10.544;2023-09-07T10:30:58;6.55;;;3.28;;
7529;SDS011;3806;52.270;10.544;2023-09-07T10:33:28;3.17;;;2.70;;
7529;SDS011;3806;52.270;10.544;2023-09-07T10:35:54;7.38;;;3.13;;
7529;SDS011;3806;52.270;10.544;2023-09-07T10:38:20;5.40;;;2.63;;
7529;SDS011;3806;52.270;10.544;2023-09-07T10:40:47;4.38;;;3.20;;
7529;SDS011;3806;52.270;10.544;2023-09-07T10:43:12;4.47;;;3.00;;
7529;SDS011;3806;52.270;10.544;2023-09-07T10:45:38;4.40;;;2.78;;
7529;SDS011;3806;52.270;10.544;2023-09-07T10:48:04;4.43;;;3.42;;
7529;SDS011;3806;52.270;10.544;2023-09-07T10:50:30;4.70;;;2.80;;
7529;SDS011;3806;52.270;10.544;2023-09-07T10:53:06;3.67;;;2.75;;
7529;SDS011;3806;52.270;10.544;2023-09-07T10:55:36;7.05;;;3.05;;
7529;SDS011;3806;52.270;10.544;2023-09-07T10:58:03;4.22;;;2.40;;
7529;SDS011;3806;52.270;10.544;2023-09-07T11:00:29;5.95;;;3.00;;
7529;SDS011;3806;52.270;10.544;2023-09-07T11:02:55;4.13;;;2.80;;
7529;SDS011;3806;52.270;10.544;2023-09-07T11:05:20;4.07;;;2.53;;
7529;SDS011;3806;52.270;10.544;2023-09-07T11:07:46;5.75;;;3.10;;
7529;SDS011;3806;52.270;10.544;2023-09-07T11:10:11;7.57;;;2.90;;
7529;SDS011;3806;52.270;10.544;2023-09-07T11:12:38;4.18;;;3.03;;
7529;SDS011;3806;52.270;10.544;2023-09-07T11:15:05;9.35;;;2.90;;
7529;SDS011;3806;52.270;10.544;2023-09-07T11:17:36;4.32;;;3.22;;
7529;SDS011;3806;52.270;10.544;2023-09-07T11:20:03;8.65;;;3.13;;
7529;SDS011;3806;52.270;10.544;2023-09-07T11:22:32;9.32;;;3.33;;
7529;SDS011;3806;52.270;10.544;2023-09-07T11:25:01;5.18;;;3.70;;
7529;SDS011;3806;52.270;10.544;2023-09-07T11:27:30;4.50;;;3.33;;
7529;SDS011;3806;52.270;10.544;2023-09-07T11:29:56;9.40;;;3.00;;
7529;SDS011;3806;52.270;10.544;2023-09-07T11:32:23;5.10;;;3.05;;
7529;SDS011;3806;52.270;10.544;2023-09-07T11:34:49;4.88;;;3.45;;
7529;SDS011;3806;52.270;10.544;2023-09-07T11:37:16;4.45;;;2.65;;
7529;SDS011;3806;52.270;10.544;2023-09-07T11:39:43;5.82;;;3.08;;
7529;SDS011;3806;52.270;10.544;2023-09-07T11:42:09;3.13;;;2.72;;
7529;SDS011;3806;52.270;10.544;2023-09-07T11:44:34;4.10;;;2.78;;
7529;SDS011;3806;52.270;10.544;2023-09-07T11:47:00;4.80;;;2.80;;
7529;SDS011;3806;52.270;10.544;2023-09-07T11:49:26;3.65;;;2.83;;
7529;SDS011;3806;52.270;10.544;2023-09-07T11:51:51;4.10;;;2.97;;
7529;SDS011;3806;52.270;10.544;2023-09-07T11:54:17;4.57;;;3.00;;
7529;SDS011;3806;52.270;10.544;2023-09-07T11:56:42;3.85;;;2.75;;
7529;SDS011;3806;52.270;10.544;2023-09-07T11:59:09;6.97;;;2.88;;
7529;SDS011;3806;52.270;10.544;2023-09-07T12:01:35;4.53;;;2.85;;
7529;SDS011;3806;52.270;10.544;2023-09-07T12:04:00;6.20;;;3.17;;
7529;SDS011;3806;52.270;10.544;2023-09-07T12:06:26;6.28;;;3.35;;
7529;SDS011;3806;52.270;10.544;2023-09-07T12:08:58;4.30;;;3.05;;
7529;SDS011;3806;52.270;10.544;2023-09-07T12:11:25;4.78;;;2.80;;
7529;SDS011;3806;52.270;10.544;2023-09-07T12:13:50;5.60;;;2.97;;
7529;SDS011;3806;52.270;10.544;2023-09-07T12:16:16;4.38;;;2.95;;
7529;SDS011;3806;52.270;10.544;2023-09-07T12:18:41;4.93;;;3.72;;
7529;SDS011;3806;52.270;10.544;2023-09-07T12:21:07;5.32;;;2.95;;
7529;SDS011;3806;52.270;10.544;2023-09-07T12:23:33;5.53;;;2.80;;
7529;SDS011;3806;52.270;10.544;2023-09-07T12:26:01;4.57;;;2.95;;
7529;SDS011;3806;52.270;10.544;2023-09-07T12:28:29;5.10;;;2.97;;
7529;SDS011;3806;52.270;10.544;2023-09-07T12:30:55;4.50;;;3.00;;
7529;SDS011;3806;52.270;10.544;2023-09-07T12:33:20;3.50;;;2.45;;
7529;SDS011;3806;52.270;10.544;2023-09-07T12:35:46;5.72;;;2.67;;
7529;SDS011;3806;52.270;10.544;2023-09-07T12:38:11;3.17;;;2.70;;
7529;SDS011;3806;52.270;10.544;2023-09-07T12:40:42;6.60;;;2.80;;
7529;SDS011;3806;52.270;10.544;2023-09-07T12:43:07;4.65;;;2.63;;
7529;SDS011;3806;52.270;10.544;2023-09-07T12:45:33;6.18;;;3.08;;
7529;SDS011;3806;52.270;10.544;2023-09-07T12:47:58;4.57;;;3.25;;
7529;SDS011;3806;52.270;10.544;2023-09-07T12:50:25;4.20;;;3.30;;
7529;SDS011;3806;52.270;10.544;2023-09-07T12:52:51;5.30;;;2.80;;
7529;SDS011;3806;52.270;10.544;2023-09-07T12:55:17;6.55;;;2.70;;
7529;SDS011;3806;52.270;10.544;2023-09-07T12:57:43;4.70;;;2.60;;
7529;SDS011;3806;52.270;10.544;2023-09-07T13:00:09;4.70;;;2.72;;
7529;SDS011;3806;52.270;10.544;2023-09-07T13:02:38;4.88;;;2.70;;
7529;SDS011;3806;52.270;10.544;2023-09-07T13:05:03;3.42;;;2.58;;
7529;SDS011;3806;52.270;10.544;2023-09-07T13:07:30;5.95;;;2.47;;
7529;SDS011;3806;52.270;10.544;2023-09-07T13:09:57;4.18;;;2.85;;
7529;SDS011;3806;52.270;10.544;2023-09-07T13:12:23;3.88;;;2.53;;
7529;SDS011;3806;52.270;10.544;2023-09-07T13:14:48;4.97;;;2.70;;
7529;SDS011;3806;52.270;10.544;2023-09-07T13:17:14;4.07;;;2.65;;
7529;SDS011;3806;52.270;10.544;2023-09-07T13:19:40;3.42;;;2.50;;
7529;SDS011;3806;52.270;10.544;2023-09-07T13:22:06;3.95;;;2.80;;
7529;SDS011;3806;52.270;10.544;2023-09-07T13:24:32;4.80;;;2.33;;
7529;SDS011;3806;52.270;10.544;2023-09-07T13:27:01;4.50;;;3.00;;
7529;SDS011;3806;52.270;10.544;2023-09-07T13:29:28;6.80;;;2.50;;
7529;SDS011;3806;52.270;10.544;2023-09-07T13:31:54;5.05;;;2.72;;
7529;SDS011;3806;52.270;10.544;2023-09-07T13:34:20;3.75;;;2.50;;
7529;SDS011;3806;52.270;10.544;2023-09-07T13:36:46;4.10;;;2.40;;
7529;SDS011;3806;52.270;10.544;2023-09-07T13:39:11;4.20;;;2.60;;
7529;SDS011;3806;52.270;10.544;2023-09-07T13:41:37;4.65;;;2.50;;
7529;SDS011;3806;52.270;10.544;2023-09-07T13:44:03;3.85;;;2.75;;
7529;SDS011;3806;52.270;10.544;2023-09-07T13:46:28;4.57;;;2.55;;
7529;SDS011;3806;52.270;10.544;2023-09-07T13:48:54;3.47;;;2.58;;
7529;SDS011;3806;52.270;10.544;2023-09-07T13:51:20;4.05;;;2.63;;
7529;SDS011;3806;52.270;10.544;2023-09-07T13:53:45;3.42;;;2.33;;
7529;SDS011;3806;52.270;10.544;2023-09-07T13:56:11;4.22;;;2.70;;
7529;SDS011;3806;52.270;10.544;2023-09-07T13:58:36;4.28;;;2.67;;
7529;SDS011;3806;52.270;10.544;2023-09-07T14:01:02;3.78;;;2.95;;
7529;SDS011;3806;52.270;10.544;2023-09-07T14:03:28;4.28;;;2.42;;
7529;SDS011;3806;52.270;10.544;2023-09-07T14:05:53;4.15;;;2.50;;
7529;SDS011;3806;52.270;10.544;2023-09-07T14:08:19;5.13;;;2.85;;
7529;SDS011;3806;52.270;10.544;2023-09-07T14:10:48;3.85;;;2.58;;
7529;SDS011;3806;52.270;10.544;2023-09-07T14:13:14;4.00;;;2.90;;
7529;SDS011;3806;52.270;10.544;2023-09-07T14:15:39;4.07;;;2.58;;
7529;SDS011;3806;52.270;10.544;2023-09-07T14:18:05;6.85;;;3.00;;
7529;SDS011;3806;52.270;10.544;2023-09-07T14:20:32;5.60;;;3.03;;
7529;SDS011;3806;52.270;10.544;2023-09-07T14:22:58;4.78;;;2.65;;
7529;SDS011;3806;52.270;10.544;2023-09-07T14:25:25;5.72;;;2.72;;
7529;SDS011;3806;52.270;10.544;2023-09-07T14:27:51;4.55;;;2.70;;
7529;SDS011;3806;52.270;10.544;2023-09-07T14:30:17;8.05;;;2.28;;
7529;SDS011;3806;52.270;10.544;2023-09-07T14:32:43;5.57;;;2.42;;
7529;SDS011;3806;52.270;10.544;2023-09-07T14:35:09;5.30;;;2.83;;
7529;SDS011;3806;52.270;10.544;2023-09-07T14:37:36;3.60;;;2.55;;
7529;SDS011;3806;52.270;10.544;2023-09-07T14:40:01;5.38;;;2.88;;
7529;SDS011;3806;52.270;10.544;2023-09-07T14:42:27;6.03;;;2.63;;
7529;SDS011;3806;52.270;10.544;2023-09-07T14:44:53;3.75;;;2.22;;
7529;SDS011;3806;52.270;10.544;2023-09-07T14:47:19;3.08;;;2.28;;
7529;SDS011;3806;52.270;10.544;2023-09-07T14:49:50;4.07;;;2.70;;
7529;SDS011;3806;52.270;10.544;2023-09-07T14:52:20;3.92;;;2.60;;
7529;SDS011;3806;52.270;10.544;2023-09-07T14:54:49;3.80;;;2.20;;